sensor_id;sensor_type;location;lat;lon;timestamp;pressure;altitude;pressure_sealevel;temperature;humidity
20037;BME280;10179;42.640;23.312;2023-02-12T18:07:44;95103.94;;;6.93;43.84
20037;BME280;10179;42.640;23.312;2023-02-12T18:11:23;95142.75;;;7.21;44.07
20037;BME280;10179;42.640;23.312;2023-02-12T18:13:52;95109.97;;;7.10;43.74
20037;BME280;10179;42.640;23.312;2023-02-12T18:16:18;95144.81;;;7.42;43.45
20037;BME280;10179;42.640;23.312;2023-02-12T18:18:44;95149.88;;;7.52;43.54
20037;BME280;10179;42.640;23.312;2023-02-12T18:21:12;95094.44;;;7.17;42.93
20037;BME280;10179;42.640;23.312;2023-02-12T18:23:38;95149.41;;;7.48;43.08
20037;BME280;10179;42.640;23.312;2023-02-12T18:26:09;95132.28;;;7.29;43.15
20037;BME280;10179;42.640;23.312;2023-02-12T18:28:36;95122.66;;;7.22;42.99
20037;BME280;10179;42.640;23.312;2023-02-12T18:31:02;95076.88;;;6.86;43.22
20037;BME280;10179;42.640;23.312;2023-02-12T18:33:28;95097.59;;;6.96;43.39
20037;BME280;10179;42.640;23.312;2023-02-12T18:36:03;95116.81;;;7.11;43.44
20037;BME280;10179;42.640;23.312;2023-02-12T18:38:30;95151.44;;;7.13;43.22
20037;BME280;10179;42.640;23.312;2023-02-12T18:40:56;95148.31;;;7.18;43.37
20037;BME280;10179;42.640;23.312;2023-02-12T18:43:22;95127.44;;;7.02;43.55
20037;BME280;10179;42.640;23.312;2023-02-12T18:45:47;95144.41;;;7.14;43.71
20037;BME280;10179;42.640;23.312;2023-02-12T18:48:13;95165.97;;;7.16;43.66
20037;BME280;10179;42.640;23.312;2023-02-12T18:50:38;95145.72;;;7.10;43.69
20037;BME280;10179;42.640;23.312;2023-02-12T18:53:04;95145.72;;;7.10;43.59
20037;BME280;10179;42.640;23.312;2023-02-12T18:55:30;95163.34;;;7.24;43.64
20037;BME280;10179;42.640;23.312;2023-02-12T18:57:55;95125.50;;;6.96;43.51
20037;BME280;10179;42.640;23.312;2023-02-12T19:00:21;95133.16;;;6.97;43.52
20037;BME280;10179;42.640;23.312;2023-02-12T19:02:46;95182.78;;;7.13;43.24
20037;BME280;10179;42.640;23.312;2023-02-12T19:05:12;95185.88;;;7.09;43.60
20037;BME280;10179;42.640;23.312;2023-02-12T19:07:38;95186.88;;;7.00;43.67
20037;BME280;10179;42.640;23.312;2023-02-12T19:10:04;95159.13;;;6.82;44.15
20037;BME280;10179;42.640;23.312;2023-02-12T19:12:29;95168.25;;;6.86;43.86
20037;BME280;10179;42.640;23.312;2023-02-12T19:14:55;95194.84;;;6.98;44.18
20037;BME280;10179;42.640;23.312;2023-02-12T19:17:20;95208.06;;;7.05;44.26
20037;BME280;10179;42.640;23.312;2023-02-12T19:19:49;95151.63;;;6.71;44.41
20037;BME280;10179;42.640;23.312;2023-02-12T19:22:15;95145.13;;;6.67;44.33
20037;BME280;10179;42.640;23.312;2023-02-12T19:24:40;95209.56;;;7.07;44.30
20037;BME280;10179;42.640;23.312;2023-02-12T19:27:06;95208.41;;;7.10;44.50
20037;BME280;10179;42.640;23.312;2023-02-12T19:29:31;95124.88;;;6.61;44.68
20037;BME280;10179;42.640;23.312;2023-02-12T19:31:56;95202.88;;;7.13;44.68
20037;BME280;10179;42.640;23.312;2023-02-12T19:34:22;95206.94;;;7.15;44.77
20037;BME280;10179;42.640;23.312;2023-02-12T19:36:49;95207.78;;;7.16;44.70
20037;BME280;10179;42.640;23.312;2023-02-12T19:39:17;95196.81;;;7.12;44.65
20037;BME280;10179;42.640;23.312;2023-02-12T19:41:44;95204.47;;;7.22;44.84
20037;BME280;10179;42.640;23.312;2023-02-12T19:44:19;95198.28;;;7.23;44.80
20037;BME280;10179;42.640;23.312;2023-02-12T19:46:46;95199.28;;;7.14;44.85
20037;BME280;10179;42.640;23.312;2023-02-12T19:49:17;95218.34;;;7.23;44.69
20037;BME280;10179;42.640;23.312;2023-02-12T19:51:43;95220.84;;;7.16;44.66
20037;BME280;10179;42.640;23.312;2023-02-12T19:54:10;95218.22;;;7.16;44.85
20037;BME280;10179;42.640;23.312;2023-02-12T19:56:37;95140.84;;;6.58;44.95
20037;BME280;10179;42.640;23.312;2023-02-12T19:59:03;95221.94;;;7.05;44.80
20037;BME280;10179;42.640;23.312;2023-02-12T20:01:29;95228.03;;;7.06;44.60
20037;BME280;10179;42.640;23.312;2023-02-12T20:03:55;95238.78;;;7.03;44.71
20037;BME280;10179;42.640;23.312;2023-02-12T20:06:27;95246.28;;;6.98;44.67
20037;BME280;10179;42.640;23.312;2023-02-12T20:08:53;95246.13;;;6.91;45.10
20037;BME280;10179;42.640;23.312;2023-02-12T20:11:21;95221.63;;;6.76;44.85
20037;BME280;10179;42.640;23.312;2023-02-12T20:13:47;95203.31;;;6.43;45.18
20037;BME280;10179;42.640;23.312;2023-02-12T20:16:15;95232.84;;;6.60;45.30
20037;BME280;10179;42.640;23.312;2023-02-12T20:18:43;95240.69;;;6.52;45.26
20037;BME280;10179;42.640;23.312;2023-02-12T20:21:11;95257.31;;;6.51;45.13
20037;BME280;10179;42.640;23.312;2023-02-12T20:23:37;95067.50;;;5.19;45.50
20037;BME280;10179;42.640;23.312;2023-02-12T20:26:05;95058.16;;;5.08;45.24
20037;BME280;10179;42.640;23.312;2023-02-12T20:28:30;95252.38;;;6.31;45.25
20037;BME280;10179;42.640;23.312;2023-02-12T20:30:56;95258.88;;;6.27;45.39
20037;BME280;10179;42.640;23.312;2023-02-12T20:33:21;95241.03;;;6.06;45.30
20037;BME280;10179;42.640;23.312;2023-02-12T20:35:54;95106.84;;;5.16;45.50
20037;BME280;10179;42.640;23.312;2023-02-12T20:38:19;95248.91;;;6.14;45.03
20037;BME280;10179;42.640;23.312;2023-02-12T20:40:45;95251.19;;;5.83;45.48
20037;BME280;10179;42.640;23.312;2023-02-12T20:43:10;95206.47;;;5.44;45.69
20037;BME280;10179;42.640;23.312;2023-02-12T20:45:35;95248.13;;;5.62;45.87
20037;BME280;10179;42.640;23.312;2023-02-12T20:48:01;95247.44;;;5.52;46.14
20037;BME280;10179;42.640;23.312;2023-02-12T20:50:26;95251.28;;;5.47;46.05
20037;BME280;10179;42.640;23.312;2023-02-12T20:52:51;95252.56;;;5.43;46.55
20037;BME280;10179;42.640;23.312;2023-02-12T20:55:17;95251.09;;;5.41;46.18
20037;BME280;10179;42.640;23.312;2023-02-12T20:57:42;95241.75;;;5.30;46.33
20037;BME280;10179;42.640;23.312;2023-02-12T21:00:08;95256.41;;;5.31;46.56
20037;BME280;10179;42.640;23.312;2023-02-12T21:02:33;95251.78;;;5.25;46.25
20037;BME280;10179;42.640;23.312;2023-02-12T21:04:59;95264.47;;;5.20;45.92
20037;BME280;10179;42.640;23.312;2023-02-12T21:07:24;95269.47;;;5.13;46.54
20037;BME280;10179;42.640;23.312;2023-02-12T21:09:50;95271.56;;;5.10;46.50
20037;BME280;10179;42.640;23.312;2023-02-12T21:12:15;95281.28;;;5.08;46.42
20037;BME280;10179;42.640;23.312;2023-02-12T21:14:40;95293.31;;;5.09;46.82
20037;BME280;10179;42.640;23.312;2023-02-12T21:17:06;95279.94;;;5.03;46.99
20037;BME280;10179;42.640;23.312;2023-02-12T21:19:31;95294.53;;;5.14;47.02
20037;BME280;10179;42.640;23.312;2023-02-12T21:21:59;95288.34;;;5.15;46.90
20037;BME280;10179;42.640;23.312;2023-02-12T21:24:24;95286.19;;;5.11;46.80
20037;BME280;10179;42.640;23.312;2023-02-12T21:26:51;95268.81;;;4.93;46.72
20037;BME280;10179;42.640;23.312;2023-02-12T21:29:17;95297.50;;;5.01;46.75
20037;BME280;10179;42.640;23.312;2023-02-12T21:31:45;95288.34;;;4.97;46.91
20037;BME280;10179;42.640;23.312;2023-02-12T21:34:16;95287.69;;;4.95;46.99
20037;BME280;10179;42.640;23.312;2023-02-12T21:36:43;95281.06;;;4.83;47.03
20037;BME280;10179;42.640;23.312;2023-02-12T21:39:12;95278.16;;;4.86;47.38
20037;BME280;10179;42.640;23.312;2023-02-12T21:41:39;95275.22;;;4.81;47.37
20037;BME280;10179;42.640;23.312;2023-02-12T21:44:16;95298.34;;;5.02;47.03
20037;BME280;10179;42.640;23.312;2023-02-12T21:46:42;95296.97;;;4.98;47.16
20037;BME280;10179;42.640;23.312;2023-02-12T21:49:08;95200.34;;;4.39;47.06
20037;BME280;10179;42.640;23.312;2023-02-12T21:51:42;95302.72;;;5.01;47.20
20037;BME280;10179;42.640;23.312;2023-02-12T21:54:13;95309.56;;;5.02;47.39
20037;BME280;10179;42.640;23.312;2023-02-12T21:56:40;95313.13;;;5.01;47.35
20037;BME280;10179;42.640;23.312;2023-02-12T21:59:07;95315.72;;;5.01;47.61
20037;BME280;10179;42.640;23.312;2023-02-12T22:01:35;95325.84;;;5.05;47.68
20037;BME280;10179;42.640;23.312;2023-02-12T22:04:02;95324.91;;;5.06;47.61
20037;BME280;10179;42.640;23.312;2023-02-12T22:06:28;95330.91;;;5.06;47.64
20037;BME280;10179;42.640;23.312;2023-02-12T22:08:55;95241.72;;;4.50;47.58
20037;BME280;10179;42.640;23.312;2023-02-12T22:11:21;95279.97;;;4.68;47.64
20037;BME280;10179;42.640;23.312;2023-02-12T22:13:47;95328.97;;;4.90;47.71
20037;BME280;10179;42.640;23.312;2023-02-12T22:16:21;95325.03;;;4.86;47.63
20037;BME280;10179;42.640;23.312;2023-02-12T22:18:50;95294.81;;;4.58;47.76
20037;BME280;10179;42.640;23.312;2023-02-12T22:21:16;95311.19;;;4.68;48.00
20037;BME280;10179;42.640;23.312;2023-02-12T22:23:43;95327.84;;;4.75;48.07
20037;BME280;10179;42.640;23.312;2023-02-12T22:26:15;95316.16;;;4.61;47.98
20037;BME280;10179;42.640;23.312;2023-02-12T22:28:43;95321.59;;;4.68;48.51
20037;BME280;10179;42.640;23.312;2023-02-12T22:31:11;95332.25;;;4.74;48.42
20037;BME280;10179;42.640;23.312;2023-02-12T22:33:37;95303.28;;;4.60;48.54
20037;BME280;10179;42.640;23.312;2023-02-12T22:36:04;95326.41;;;4.81;48.43
20037;BME280;10179;42.640;23.312;2023-02-12T22:38:32;95330.53;;;4.83;48.46
20037;BME280;10179;42.640;23.312;2023-02-12T22:40:58;95335.72;;;4.83;48.40
20037;BME280;10179;42.640;23.312;2023-02-12T22:43:23;95260.34;;;4.28;48.25
20037;BME280;10179;42.640;23.312;2023-02-12T22:45:48;95335.66;;;4.75;48.55
20037;BME280;10179;42.640;23.312;2023-02-12T22:48:14;95314.38;;;4.62;48.76
20037;BME280;10179;42.640;23.312;2023-02-12T22:50:39;95350.00;;;4.79;48.32
20037;BME280;10179;42.640;23.312;2023-02-12T22:53:05;95279.91;;;4.32;48.48
20037;BME280;10179;42.640;23.312;2023-02-12T22:55:31;95316.69;;;4.65;48.54
20037;BME280;10179;42.640;23.312;2023-02-12T22:57:56;95349.31;;;4.77;48.32
20037;BME280;10179;42.640;23.312;2023-02-12T23:00:22;95324.69;;;4.53;48.20
20037;BME280;10179;42.640;23.312;2023-02-12T23:02:47;95307.56;;;4.33;48.14
20037;BME280;10179;42.640;23.312;2023-02-12T23:05:13;95345.78;;;4.50;48.39
20037;BME280;10179;42.640;23.312;2023-02-12T23:07:38;95355.78;;;4.45;48.66
20037;BME280;10179;42.640;23.312;2023-02-12T23:10:04;95306.28;;;4.10;48.81
20037;BME280;10179;42.640;23.312;2023-02-12T23:12:30;95267.28;;;3.82;48.40
20037;BME280;10179;42.640;23.312;2023-02-12T23:14:56;95349.06;;;4.25;48.69
20037;BME280;10179;42.640;23.312;2023-02-12T23:17:21;95323.31;;;3.94;48.45
20037;BME280;10179;42.640;23.312;2023-02-12T23:19:46;95361.56;;;4.12;48.77
20037;BME280;10179;42.640;23.312;2023-02-12T23:22:12;95356.94;;;4.05;48.90
20037;BME280;10179;42.640;23.312;2023-02-12T23:24:37;95337.84;;;3.87;49.17
20037;BME280;10179;42.640;23.312;2023-02-12T23:27:02;95264.16;;;3.31;49.01
20037;BME280;10179;42.640;23.312;2023-02-12T23:29:28;95376.94;;;3.95;49.25
20037;BME280;10179;42.640;23.312;2023-02-12T23:31:53;95355.06;;;3.88;49.29
20037;BME280;10179;42.640;23.312;2023-02-12T23:34:19;95362.75;;;3.90;49.32
20037;BME280;10179;42.640;23.312;2023-02-12T23:36:44;95339.22;;;3.72;49.57
20037;BME280;10179;42.640;23.312;2023-02-12T23:39:11;95373.25;;;3.88;49.65
20037;BME280;10179;42.640;23.312;2023-02-12T23:41:36;95375.59;;;3.91;50.12
20037;BME280;10179;42.640;23.312;2023-02-12T23:44:02;95372.88;;;3.83;50.16
20037;BME280;10179;42.640;23.312;2023-02-12T23:46:28;95389.28;;;3.93;50.19
20037;BME280;10179;42.640;23.312;2023-02-12T23:48:53;95371.47;;;3.89;49.97
20037;BME280;10179;42.640;23.312;2023-02-12T23:51:19;95385.44;;;3.97;50.22
20037;BME280;10179;42.640;23.312;2023-02-12T23:53:44;95369.31;;;3.84;50.01
20037;BME280;10179;42.640;23.312;2023-02-12T23:56:09;95319.19;;;3.54;50.04
20037;BME280;10179;42.640;23.312;2023-02-12T23:58:35;95373.69;;;3.83;50.26
